createdAt,value
2019-03-17T00:00:29.113Z,3.17
2019-03-17T00:02:56.796Z,3.70
2019-03-17T00:05:24.438Z,5.73
2019-03-17T00:07:52.016Z,4.27
2019-03-17T00:10:19.628Z,4.73
2019-03-17T00:12:47.197Z,3.40
2019-03-17T00:15:14.847Z,3.83
2019-03-17T00:17:42.449Z,3.47
2019-03-17T00:20:10.065Z,5.27
2019-03-17T00:22:37.646Z,3.50
2019-03-17T00:25:09.644Z,4.10
2019-03-17T00:27:34.896Z,4.27
2019-03-17T00:30:03.083Z,3.90
2019-03-17T00:32:30.669Z,6.43
2019-03-17T00:34:58.278Z,5.77
2019-03-17T00:37:25.864Z,6.67
2019-03-17T00:39:55.061Z,4.37
2019-03-17T00:42:22.692Z,4.37
2019-03-17T00:44:50.365Z,7.90
2019-03-17T00:47:17.938Z,5.27
2019-03-17T00:49:45.554Z,4.97
2019-03-17T00:52:13.129Z,5.40
2019-03-17T00:54:40.992Z,5.30
2019-03-17T00:57:08.589Z,4.00
2019-03-17T00:59:36.206Z,6.23
2019-03-17T01:02:03.802Z,4.13
2019-03-17T01:04:31.412Z,4.50
2019-03-17T01:06:58.995Z,4.70
2019-03-17T01:09:26.601Z,4.60
2019-03-17T01:11:54.181Z,3.07
2019-03-17T01:14:21.788Z,5.47
2019-03-17T01:16:49.411Z,6.80
2019-03-17T01:19:17.020Z,4.83
2019-03-17T01:21:44.591Z,4.70
2019-03-17T01:24:12.198Z,7.53
2019-03-17T01:26:39.856Z,4.47
2019-03-17T01:29:07.455Z,4.23
2019-03-17T01:31:35.062Z,3.43
2019-03-17T01:34:02.661Z,6.03
2019-03-17T01:36:30.273Z,3.47
2019-03-17T01:38:57.845Z,6.07
2019-03-17T01:41:25.447Z,8.40
2019-03-17T01:43:53.244Z,8.80
2019-03-17T01:46:20.895Z,11.43
2019-03-17T01:48:48.514Z,7.83
2019-03-17T01:51:16.112Z,7.70
2019-03-17T01:53:43.690Z,7.17
2019-03-17T01:56:11.319Z,7.43
2019-03-17T01:58:38.927Z,7.27
2019-03-17T02:01:06.525Z,9.40
2019-03-17T02:03:34.171Z,5.33
2019-03-17T02:06:01.785Z,4.17
2019-03-17T02:08:29.381Z,5.30
2019-03-17T02:10:57.015Z,6.53
2019-03-17T02:13:24.624Z,5.73
2019-03-17T02:15:52.264Z,8.33
2019-03-17T02:18:19.831Z,7.57
2019-03-17T02:20:47.462Z,4.73
2019-03-17T02:23:15.037Z,7.17
2019-03-17T02:25:44.380Z,4.90
2019-03-17T02:28:11.947Z,5.13
2019-03-17T02:30:39.609Z,6.87
2019-03-17T02:33:07.177Z,5.73
2019-03-17T02:35:39.611Z,3.80
2019-03-17T02:38:04.148Z,5.77
2019-03-17T02:40:31.796Z,4.90
2019-03-17T02:42:59.390Z,4.57
2019-03-17T02:45:26.984Z,3.60
2019-03-17T02:47:54.573Z,6.43
2019-03-17T02:50:22.171Z,4.27
2019-03-17T02:52:49.764Z,4.37
2019-03-17T02:55:17.405Z,5.23
2019-03-17T02:57:45.018Z,6.53
2019-03-17T03:00:12.645Z,4.53
2019-03-17T03:02:40.222Z,6.77
2019-03-17T03:05:07.791Z,6.97
2019-03-17T03:07:35.396Z,5.70
2019-03-17T03:10:03.166Z,5.23
2019-03-17T03:12:30.811Z,8.10
2019-03-17T03:14:58.422Z,7.37
2019-03-17T03:17:26.051Z,8.73
2019-03-17T03:19:53.645Z,8.17
2019-03-17T03:22:21.294Z,5.37
2019-03-17T03:24:48.881Z,9.30
2019-03-17T03:27:16.501Z,14.60
2019-03-17T03:29:44.124Z,10.80
2019-03-17T03:32:11.761Z,10.70
2019-03-17T03:34:39.327Z,8.37
2019-03-17T03:37:06.948Z,8.53
2019-03-17T03:39:34.542Z,7.90
2019-03-17T03:42:02.234Z,8.70
2019-03-17T03:44:29.806Z,12.50
2019-03-17T03:46:57.428Z,11.83
2019-03-17T03:49:25.016Z,11.67
2019-03-17T03:51:52.644Z,9.47
2019-03-17T03:54:23.097Z,10.63
2019-03-17T03:56:50.769Z,5.80
2019-03-17T03:59:18.590Z,6.00
2019-03-17T04:01:46.203Z,6.03
2019-03-17T04:04:13.814Z,8.47
2019-03-17T04:06:41.514Z,5.33
2019-03-17T04:09:09.157Z,9.30
2019-03-17T04:11:37.046Z,5.77
2019-03-17T04:14:06.484Z,8.97
2019-03-17T04:16:34.114Z,8.40
2019-03-17T04:19:01.739Z,8.70
2019-03-17T04:21:32.621Z,6.93
2019-03-17T04:24:00.180Z,8.37
2019-03-17T04:26:27.952Z,10.10
2019-03-17T04:28:55.717Z,8.47
2019-03-17T04:31:25.215Z,7.80
2019-03-17T04:33:52.805Z,8.00
2019-03-17T04:36:20.482Z,9.63
2019-03-17T04:38:48.768Z,9.87
2019-03-17T04:41:17.566Z,8.13
2019-03-17T04:43:45.116Z,11.23
2019-03-17T04:46:12.739Z,14.50
2019-03-17T04:48:40.395Z,14.53
2019-03-17T04:51:08.178Z,10.67
2019-03-17T04:53:36.911Z,11.13
2019-03-17T04:56:05.251Z,13.53
2019-03-17T04:58:35.554Z,14.73
2019-03-17T05:01:03.114Z,10.73
2019-03-17T05:03:30.729Z,10.10
2019-03-17T05:05:58.428Z,10.77
2019-03-17T05:08:26.035Z,7.87
2019-03-17T05:10:53.845Z,9.57
2019-03-17T05:13:22.039Z,9.00
2019-03-17T05:15:49.641Z,8.43
2019-03-17T05:18:17.471Z,13.80
2019-03-17T05:20:45.234Z,8.20
2019-03-17T05:23:12.837Z,10.33
2019-03-17T05:25:40.456Z,11.47
2019-03-17T05:28:08.216Z,9.37
2019-03-17T05:30:35.747Z,9.10
2019-03-17T05:33:04.947Z,11.43
2019-03-17T05:35:32.901Z,9.83
2019-03-17T05:38:00.662Z,10.83
2019-03-17T05:40:28.411Z,9.77
2019-03-17T05:42:56.158Z,14.93
2019-03-17T05:45:23.725Z,12.10
2019-03-17T05:47:51.505Z,11.77
2019-03-17T05:50:19.102Z,9.67
2019-03-17T05:52:46.965Z,11.50
2019-03-17T05:55:14.958Z,10.97
2019-03-17T05:57:43.674Z,12.73
2019-03-17T06:00:11.934Z,15.33
2019-03-17T06:02:41.883Z,13.77
2019-03-17T06:05:10.092Z,16.50
2019-03-17T06:07:38.045Z,19.10
2019-03-17T06:10:06.222Z,13.47
2019-03-17T06:12:33.902Z,12.93
2019-03-17T06:15:01.515Z,17.17
2019-03-17T06:17:29.535Z,17.80
2019-03-17T06:19:57.200Z,16.07
2019-03-17T06:22:24.892Z,14.33
2019-03-17T06:24:52.977Z,14.30
2019-03-17T06:27:20.632Z,15.97
2019-03-17T06:29:48.268Z,19.77
2019-03-17T06:32:16.085Z,19.60
2019-03-17T06:34:43.671Z,19.03
2019-03-17T06:37:11.243Z,19.27
2019-03-17T06:39:38.853Z,21.70
2019-03-17T06:42:06.442Z,19.97
2019-03-17T06:44:34.159Z,18.23
2019-03-17T06:47:01.786Z,14.70
2019-03-17T06:49:29.725Z,18.67
2019-03-17T06:51:57.371Z,13.77
2019-03-17T06:54:25.003Z,12.57
2019-03-17T06:56:52.774Z,9.77
2019-03-17T06:59:20.401Z,11.63
2019-03-17T07:01:48.045Z,9.70
2019-03-17T07:04:15.712Z,9.50
2019-03-17T07:06:43.265Z,10.40
2019-03-17T07:09:10.865Z,12.00
2019-03-17T07:11:38.437Z,12.43
2019-03-17T07:14:06.038Z,8.73
2019-03-17T07:16:33.646Z,6.90
2019-03-17T07:19:01.276Z,6.90
2019-03-17T07:21:28.899Z,5.77
2019-03-17T07:23:56.540Z,5.97
2019-03-17T07:26:29.435Z,3.77
2019-03-17T07:28:57.060Z,1.70
2019-03-17T07:31:24.711Z,2.10
2019-03-17T07:33:52.297Z,1.83
2019-03-17T07:36:19.894Z,3.20
2019-03-17T07:38:47.563Z,2.30
2019-03-17T07:41:15.153Z,2.53
2019-03-17T07:43:42.761Z,4.53
2019-03-17T07:46:10.355Z,2.50
2019-03-17T07:48:37.969Z,3.33
2019-03-17T07:51:05.568Z,3.53
2019-03-17T07:53:33.198Z,2.00
2019-03-17T07:56:00.789Z,5.90
2019-03-17T07:58:28.398Z,1.97
2019-03-17T08:00:56.009Z,3.53
2019-03-17T08:03:23.656Z,2.70
2019-03-17T08:05:51.297Z,2.50
2019-03-17T08:08:18.967Z,2.30
2019-03-17T08:10:46.607Z,2.43
2019-03-17T08:13:14.229Z,3.47
2019-03-17T08:15:41.847Z,3.23
2019-03-17T08:18:09.454Z,2.37
2019-03-17T08:20:37.073Z,3.00
2019-03-17T08:23:04.670Z,2.77
2019-03-17T08:25:32.280Z,3.60
2019-03-17T08:27:59.988Z,3.30
2019-03-17T08:30:27.630Z,7.50
2019-03-17T08:32:55.209Z,4.03
2019-03-17T08:35:22.857Z,2.73
2019-03-17T08:37:50.494Z,3.80
2019-03-17T08:40:18.137Z,4.23
2019-03-17T08:42:45.759Z,4.67
2019-03-17T08:45:13.387Z,2.63
2019-03-17T08:47:41.000Z,2.67
2019-03-17T08:50:09.159Z,4.67
2019-03-17T08:52:36.751Z,2.87
2019-03-17T08:55:04.880Z,4.43
2019-03-17T08:57:32.487Z,3.67
2019-03-17T09:00:00.164Z,3.73
2019-03-17T09:02:28.042Z,5.93
2019-03-17T09:04:55.615Z,3.93
2019-03-17T09:07:23.198Z,4.00
2019-03-17T09:09:50.943Z,4.53
2019-03-17T09:12:22.604Z,6.57
2019-03-17T09:14:50.230Z,4.60
2019-03-17T09:17:17.804Z,3.23
2019-03-17T09:19:45.412Z,6.13
2019-03-17T09:22:13.008Z,6.17
2019-03-17T09:24:40.701Z,7.03
2019-03-17T09:27:08.214Z,6.27
2019-03-17T09:29:35.839Z,8.23
2019-03-17T09:32:03.477Z,13.33
2019-03-17T09:34:31.011Z,9.77
2019-03-17T09:36:58.654Z,8.43
2019-03-17T09:39:26.273Z,9.00
2019-03-17T09:41:53.892Z,9.40
2019-03-17T09:44:22.251Z,7.37
2019-03-17T09:46:49.899Z,8.07
2019-03-17T09:49:17.499Z,10.67
2019-03-17T09:51:45.130Z,10.77
2019-03-17T09:54:12.710Z,10.73
2019-03-17T09:56:40.320Z,12.50
2019-03-17T09:59:07.951Z,12.27
2019-03-17T10:01:35.609Z,10.67
2019-03-17T10:04:03.330Z,11.40
2019-03-17T10:06:30.902Z,12.03
2019-03-17T10:09:00.135Z,10.90
2019-03-17T10:11:27.986Z,7.93
2019-03-17T10:13:55.871Z,6.00
2019-03-17T10:16:25.976Z,7.00
2019-03-17T10:18:53.565Z,7.00
2019-03-17T10:21:21.180Z,10.97
2019-03-17T10:23:48.826Z,11.23
2019-03-17T10:26:16.516Z,9.13
2019-03-17T10:28:44.113Z,9.60
2019-03-17T10:31:11.744Z,9.57
2019-03-17T10:33:39.394Z,10.13
2019-03-17T10:36:06.961Z,10.17
2019-03-17T10:38:34.591Z,12.63
2019-03-17T10:41:02.319Z,11.43
2019-03-17T10:43:29.864Z,11.03
2019-03-17T10:45:57.566Z,10.53
2019-03-17T10:48:25.152Z,11.50
2019-03-17T10:50:52.775Z,10.50
2019-03-17T10:53:20.390Z,8.50
2019-03-17T10:55:47.971Z,7.10
2019-03-17T10:58:15.553Z,7.57
2019-03-17T11:00:43.132Z,6.67
2019-03-17T11:03:10.747Z,8.60
2019-03-17T11:05:38.454Z,11.23
2019-03-17T11:08:06.110Z,16.77
2019-03-17T11:10:33.660Z,13.80
2019-03-17T11:13:01.328Z,5.40
2019-03-17T11:15:28.909Z,2.90
2019-03-17T11:17:56.521Z,3.80
2019-03-17T11:20:24.172Z,3.80
2019-03-17T11:22:51.776Z,2.70
2019-03-17T11:25:19.651Z,3.17
2019-03-17T11:27:47.263Z,2.63
2019-03-17T11:30:14.991Z,3.00
2019-03-17T11:32:42.599Z,2.30
2019-03-17T11:35:10.307Z,2.23
2019-03-17T11:37:37.974Z,2.30
2019-03-17T11:40:06.240Z,2.97
2019-03-17T11:42:33.854Z,2.53
2019-03-17T11:45:01.465Z,3.03
2019-03-17T11:47:29.089Z,2.43
2019-03-17T11:49:56.727Z,4.50
2019-03-17T11:52:24.342Z,2.50
2019-03-17T11:54:51.924Z,4.67
2019-03-17T11:57:19.535Z,2.57
2019-03-17T11:59:47.140Z,4.10
2019-03-17T12:02:26.046Z,2.53
2019-03-17T12:04:44.153Z,3.13
2019-03-17T12:07:11.787Z,3.57
2019-03-17T12:09:49.547Z,1.60
2019-03-17T12:12:08.764Z,1.37
2019-03-17T12:14:36.340Z,1.93
2019-03-17T12:17:03.976Z,1.40
2019-03-17T12:19:32.808Z,1.90
2019-03-17T12:22:08.990Z,3.13
2019-03-17T12:24:30.085Z,2.33
2019-03-17T12:26:58.946Z,1.70
2019-03-17T12:29:26.535Z,1.50
2019-03-17T12:31:54.191Z,1.83
2019-03-17T12:34:28.233Z,2.00
2019-03-17T12:36:51.238Z,1.87
2019-03-17T12:39:18.855Z,1.20
2019-03-17T12:41:46.453Z,3.83
2019-03-17T12:44:14.095Z,1.80
2019-03-17T12:46:41.692Z,2.70
2019-03-17T12:49:09.341Z,1.77
2019-03-17T12:51:36.941Z,2.03
2019-03-17T12:54:04.614Z,1.77
2019-03-17T12:56:32.218Z,1.57
2019-03-17T12:58:59.864Z,3.07
2019-03-17T13:01:27.457Z,2.87
2019-03-17T13:03:55.060Z,2.87
2019-03-17T13:06:22.640Z,2.93
2019-03-17T13:08:50.258Z,1.60
2019-03-17T13:11:17.848Z,2.50
2019-03-17T13:13:45.495Z,3.20
2019-03-17T13:16:13.112Z,4.13
2019-03-17T13:18:40.718Z,2.60
2019-03-17T13:21:08.323Z,3.47
2019-03-17T13:23:35.986Z,2.80
2019-03-17T13:26:03.595Z,2.70
2019-03-17T13:28:31.235Z,1.90
2019-03-17T13:30:58.885Z,2.00
2019-03-17T13:33:26.573Z,1.67
2019-03-17T13:35:54.216Z,2.63
2019-03-17T13:38:21.870Z,5.57
2019-03-17T13:40:49.467Z,9.10
2019-03-17T13:43:17.100Z,8.63
2019-03-17T13:45:44.674Z,3.60
2019-03-17T13:48:12.319Z,3.20
2019-03-17T13:50:39.895Z,3.10
2019-03-17T13:53:07.472Z,2.90
2019-03-17T13:55:35.086Z,1.73
2019-03-17T13:58:02.770Z,2.37
2019-03-17T14:00:30.435Z,2.17
2019-03-17T14:02:58.146Z,2.20
2019-03-17T14:05:25.829Z,3.33
2019-03-17T14:07:53.427Z,2.97
2019-03-17T14:10:21.071Z,8.07
2019-03-17T14:12:48.727Z,5.60
2019-03-17T14:15:16.411Z,5.33
2019-03-17T14:17:44.126Z,3.80
2019-03-17T14:20:12.820Z,2.17
2019-03-17T14:22:40.438Z,2.77
2019-03-17T14:25:11.622Z,1.60
2019-03-17T14:27:39.206Z,1.80
2019-03-17T14:30:09.000Z,3.27
2019-03-17T14:32:36.578Z,1.40
2019-03-17T14:35:04.856Z,4.67
2019-03-17T14:37:32.459Z,6.70
2019-03-17T14:40:00.194Z,7.20
2019-03-17T14:42:27.985Z,10.50
2019-03-17T14:44:55.602Z,7.23
2019-03-17T14:47:23.260Z,6.37
2019-03-17T14:49:51.042Z,3.83
2019-03-17T14:52:18.638Z,1.77
2019-03-17T14:54:46.270Z,2.80
2019-03-17T14:57:13.861Z,2.27
2019-03-17T14:59:41.483Z,1.70
2019-03-17T15:02:09.090Z,1.40
2019-03-17T15:04:36.736Z,1.30
2019-03-17T15:07:04.319Z,2.60
2019-03-17T15:09:31.971Z,2.63
2019-03-17T15:11:59.590Z,2.03
2019-03-17T15:14:27.246Z,2.87
2019-03-17T15:16:54.855Z,1.63
2019-03-17T15:19:25.506Z,1.90
2019-03-17T15:21:53.019Z,3.37
2019-03-17T15:24:20.643Z,1.57
2019-03-17T15:26:48.182Z,2.53
2019-03-17T15:29:15.762Z,3.70
2019-03-17T15:31:43.369Z,2.13
2019-03-17T15:34:10.982Z,2.27
2019-03-17T15:36:38.607Z,2.73
2019-03-17T15:39:06.347Z,2.47
2019-03-17T15:41:33.977Z,3.13
2019-03-17T15:44:02.496Z,1.80
2019-03-17T15:46:30.125Z,2.90
2019-03-17T15:48:57.735Z,3.17
2019-03-17T15:51:25.362Z,3.83
2019-03-17T15:53:52.987Z,3.27
2019-03-17T15:56:20.660Z,3.07
2019-03-17T15:58:48.256Z,5.13
2019-03-17T16:01:15.902Z,3.87
2019-03-17T16:03:43.485Z,2.07
2019-03-17T16:06:11.142Z,3.07
2019-03-17T16:08:38.806Z,4.00
2019-03-17T16:11:06.368Z,7.50
2019-03-17T16:13:33.974Z,3.20
2019-03-17T16:16:01.608Z,5.03
2019-03-17T16:18:29.208Z,3.80
2019-03-17T16:20:56.827Z,1.40
2019-03-17T16:23:24.422Z,1.67
2019-03-17T16:25:52.060Z,1.77
2019-03-17T16:28:19.628Z,1.50
2019-03-17T16:30:47.320Z,5.10
2019-03-17T16:33:14.892Z,4.57
2019-03-17T16:35:42.507Z,3.47
2019-03-17T16:38:10.076Z,3.63
2019-03-17T16:40:37.696Z,2.90
2019-03-17T16:43:05.309Z,3.53
2019-03-17T16:45:32.908Z,2.37
2019-03-17T16:48:00.503Z,3.23
2019-03-17T16:50:28.119Z,2.93
2019-03-17T16:52:55.710Z,4.20
2019-03-17T16:55:23.317Z,2.50
2019-03-17T16:57:50.927Z,2.07
2019-03-17T17:00:19.352Z,4.60
2019-03-17T17:02:47.290Z,3.53
2019-03-17T17:05:15.000Z,3.20
2019-03-17T17:07:42.605Z,4.70
2019-03-17T17:10:12.123Z,4.10
2019-03-17T17:15:19.556Z,4.33
2019-03-17T17:17:47.223Z,4.07
2019-03-17T17:20:16.929Z,4.40
2019-03-17T17:22:44.562Z,6.90
2019-03-17T17:25:12.174Z,4.97
2019-03-17T17:27:39.764Z,4.40
2019-03-17T17:30:08.365Z,3.37
2019-03-17T17:32:35.998Z,6.37
2019-03-17T17:35:04.159Z,3.07
2019-03-17T17:37:31.715Z,3.20
2019-03-17T17:39:59.351Z,3.63
2019-03-17T17:42:26.962Z,5.60
2019-03-17T17:44:54.575Z,4.27
2019-03-17T17:47:22.178Z,4.60
2019-03-17T17:49:49.781Z,3.77
2019-03-17T17:52:17.514Z,5.90
2019-03-17T17:54:45.091Z,5.63
2019-03-17T17:57:12.838Z,3.80
2019-03-17T17:59:40.463Z,4.37
2019-03-17T18:02:08.073Z,3.20
2019-03-17T18:04:35.694Z,2.73
2019-03-17T18:07:03.378Z,3.67
2019-03-17T18:09:30.982Z,4.00
2019-03-17T18:11:58.681Z,3.77
2019-03-17T18:14:26.230Z,3.47
2019-03-17T18:16:53.940Z,4.60
2019-03-17T18:19:21.769Z,5.17
2019-03-17T18:21:49.395Z,2.67
2019-03-17T18:24:17.039Z,3.47
2019-03-17T18:26:44.695Z,3.90
2019-03-17T18:29:12.354Z,6.90
2019-03-17T18:31:39.984Z,4.03
2019-03-17T18:34:07.609Z,6.03
2019-03-17T18:36:35.230Z,4.00
2019-03-17T18:39:04.427Z,6.77
2019-03-17T18:41:32.052Z,4.00
2019-03-17T18:43:59.648Z,5.07
2019-03-17T18:46:27.230Z,4.40
2019-03-17T18:48:54.794Z,5.83
2019-03-17T18:51:24.896Z,4.63
2019-03-17T18:53:51.965Z,3.47
2019-03-17T18:56:19.569Z,3.20
2019-03-17T18:58:47.183Z,4.10
2019-03-17T19:01:14.832Z,2.60
2019-03-17T19:03:42.407Z,3.40
2019-03-17T19:06:10.064Z,3.97
2019-03-17T19:08:37.788Z,5.67
2019-03-17T19:11:05.482Z,2.83
2019-03-17T19:13:33.123Z,3.90
2019-03-17T19:16:00.724Z,3.43
2019-03-17T19:18:28.340Z,2.27
2019-03-17T19:21:02.976Z,2.83
2019-03-17T19:23:30.666Z,2.83
2019-03-17T19:25:58.279Z,2.67
2019-03-17T19:28:25.891Z,3.43
2019-03-17T19:30:53.513Z,2.00
2019-03-17T19:33:21.253Z,2.40
2019-03-17T19:35:48.869Z,2.77
2019-03-17T19:38:16.537Z,4.50
2019-03-17T19:40:45.588Z,1.80
2019-03-17T19:43:14.058Z,2.73
2019-03-17T19:45:41.679Z,3.27
2019-03-17T19:48:09.465Z,3.13
2019-03-17T19:50:37.055Z,2.63
2019-03-17T19:53:04.699Z,2.33
2019-03-17T19:55:32.378Z,1.70
2019-03-17T19:58:00.005Z,2.57
2019-03-17T20:00:28.021Z,3.13
2019-03-17T20:02:55.686Z,2.10
2019-03-17T20:05:23.323Z,2.20
2019-03-17T20:07:50.953Z,2.80
2019-03-17T20:10:20.210Z,5.03
2019-03-17T20:12:47.858Z,3.67
2019-03-17T20:15:15.447Z,4.03
2019-03-17T20:17:43.091Z,5.23
2019-03-17T20:20:11.029Z,4.33
2019-03-17T20:22:38.657Z,7.23
2019-03-17T20:25:06.465Z,5.20
2019-03-17T20:27:35.229Z,5.17
2019-03-17T20:30:03.334Z,7.33
2019-03-17T20:32:30.910Z,5.13
2019-03-17T20:34:58.565Z,4.97
2019-03-17T20:37:26.203Z,4.10
2019-03-17T20:39:54.185Z,2.97
2019-03-17T20:42:21.914Z,3.60
2019-03-17T20:44:49.698Z,1.97
2019-03-17T20:47:27.428Z,2.77
2019-03-17T20:49:55.008Z,3.63
2019-03-17T20:52:22.574Z,1.87
2019-03-17T20:54:50.638Z,2.40
2019-03-17T20:57:19.838Z,3.17
2019-03-17T20:59:47.476Z,1.80
2019-03-17T21:02:15.093Z,2.63
2019-03-17T21:04:42.695Z,2.30
2019-03-17T21:07:10.331Z,2.10
2019-03-17T21:09:37.941Z,2.47
2019-03-17T21:12:05.547Z,3.23
2019-03-17T21:14:33.219Z,2.60
2019-03-17T21:17:00.824Z,3.53
2019-03-17T21:19:28.478Z,2.73
2019-03-17T21:21:56.076Z,4.03
2019-03-17T21:24:23.728Z,3.70
2019-03-17T21:26:51.305Z,5.33
2019-03-17T21:29:18.974Z,3.57
2019-03-17T21:31:46.582Z,2.83
2019-03-17T21:34:14.214Z,4.60
2019-03-17T21:36:41.791Z,2.33
2019-03-17T21:39:09.412Z,2.80
2019-03-17T21:41:36.993Z,4.20
2019-03-17T21:44:04.722Z,2.37
2019-03-17T21:46:32.380Z,3.20
2019-03-17T21:48:59.970Z,2.50
2019-03-17T21:51:29.175Z,5.60
2019-03-17T21:53:56.841Z,4.00
2019-03-17T21:56:24.458Z,4.90
2019-03-17T21:58:52.041Z,4.40
2019-03-17T22:01:19.657Z,4.17
2019-03-17T22:03:47.291Z,4.40
2019-03-17T22:06:14.903Z,4.93
2019-03-17T22:08:42.513Z,5.47
2019-03-17T22:11:10.156Z,6.00
2019-03-17T22:13:37.746Z,4.43
2019-03-17T22:16:05.368Z,4.93
2019-03-17T22:18:32.977Z,7.30
2019-03-17T22:21:00.606Z,7.43
2019-03-17T22:23:28.218Z,5.57
2019-03-17T22:25:55.813Z,5.40
2019-03-17T22:28:23.423Z,4.73
2019-03-17T22:30:51.717Z,4.40
2019-03-17T22:33:26.802Z,6.30
2019-03-17T22:35:55.033Z,7.00
2019-03-17T22:38:23.481Z,4.97
2019-03-17T22:40:51.097Z,7.23
2019-03-17T22:43:18.686Z,5.70
2019-03-17T22:45:46.331Z,4.90
2019-03-17T22:48:13.916Z,4.10
2019-03-17T22:50:41.520Z,3.73
2019-03-17T22:53:09.120Z,5.37
2019-03-17T22:55:36.725Z,4.57
2019-03-17T22:58:04.347Z,3.00
2019-03-17T23:00:45.029Z,2.83
2019-03-17T23:03:12.690Z,5.63
2019-03-17T23:05:40.362Z,3.33
2019-03-17T23:08:07.928Z,5.60
2019-03-17T23:10:35.594Z,6.13
2019-03-17T23:13:03.204Z,7.27
2019-03-17T23:15:35.410Z,11.57
2019-03-17T23:18:01.865Z,8.67
2019-03-17T23:20:29.555Z,8.80
2019-03-17T23:22:57.146Z,7.43
2019-03-17T23:25:24.762Z,8.77
2019-03-17T23:27:52.387Z,6.53
2019-03-17T23:30:19.996Z,5.30
2019-03-17T23:32:49.267Z,8.47
2019-03-17T23:35:17.318Z,5.47
2019-03-17T23:37:44.956Z,7.33
2019-03-17T23:40:12.604Z,4.40
2019-03-17T23:42:40.191Z,3.93
2019-03-17T23:45:08.197Z,4.27
2019-03-17T23:47:35.828Z,4.00
2019-03-17T23:50:03.801Z,4.67
2019-03-17T23:52:31.401Z,4.30
2019-03-17T23:54:59.019Z,3.97
2019-03-17T23:57:26.606Z,3.83
2019-03-17T23:59:54.186Z,3.10
